createdAt,value
2022-09-26T00:00:58.206Z,21.6
2022-09-26T00:02:00.439Z,21.6
2022-09-26T00:03:02.915Z,21.6
2022-09-26T00:04:05.716Z,21.5
2022-09-26T00:05:07.935Z,21.5
2022-09-26T00:06:09.860Z,21.6
2022-09-26T00:07:12.068Z,21.6
2022-09-26T00:08:13.984Z,21.7
2022-09-26T00:09:16.194Z,21.6
2022-09-26T00:10:17.814Z,21.8
2022-09-26T00:11:20.164Z,21.7
2022-09-26T00:12:22.082Z,21.7
2022-09-26T00:13:24.563Z,21.6
2022-09-26T00:14:26.739Z,21.6
2022-09-26T00:15:28.677Z,21.7
2022-09-26T00:16:31.463Z,21.7
2022-09-26T00:17:34.003Z,21.6
2022-09-26T00:18:36.210Z,21.7
2022-09-26T00:19:38.724Z,21.7
2022-09-26T00:20:41.194Z,21.7
2022-09-26T00:21:43.388Z,21.7
2022-09-26T00:22:45.583Z,21.7
2022-09-26T00:23:48.099Z,21.7
2022-09-26T00:24:50.293Z,21.8
2022-09-26T00:25:52.762Z,21.7
2022-09-26T00:26:55.243Z,21.7
2022-09-26T00:27:57.715Z,21.8
2022-09-26T00:29:00.180Z,21.9
2022-09-26T00:30:02.378Z,21.7
2022-09-26T00:31:03.822Z,21.7
2022-09-26T00:32:06.780Z,21.7
2022-09-26T00:33:08.987Z,21.7
2022-09-26T00:34:11.499Z,21.8
2022-09-26T00:35:14.014Z,21.8
2022-09-26T00:36:15.941Z,21.8
2022-09-26T00:37:18.431Z,21.7
2022-09-26T00:38:20.893Z,21.7
2022-09-26T00:39:23.097Z,21.7
2022-09-26T00:40:25.703Z,21.8
2022-09-26T00:41:27.762Z,21.8
2022-09-26T00:42:30.249Z,21.7
2022-09-26T00:43:32.792Z,21.8
2022-09-26T00:44:34.964Z,21.8
2022-09-26T00:45:37.272Z,21.8
2022-09-26T00:46:39.070Z,21.8
2022-09-26T00:47:41.317Z,21.8
2022-09-26T00:48:43.240Z,21.8
2022-09-26T00:49:45.469Z,21.8
2022-09-26T00:50:48.071Z,21.8
2022-09-26T00:51:50.289Z,21.8
2022-09-26T00:52:52.487Z,21.9
2022-09-26T00:53:54.971Z,21.8
2022-09-26T00:54:57.444Z,21.8
2022-09-26T00:55:59.682Z,21.8
2022-09-26T00:57:02.149Z,21.8
2022-09-26T00:58:04.639Z,21.8
2022-09-26T00:59:06.830Z,21.9
2022-09-26T01:00:09.307Z,21.8
2022-09-26T01:01:12.136Z,21.8
2022-09-26T01:02:15.469Z,21.9
2022-09-26T01:03:18.545Z,21.8
2022-09-26T01:04:20.734Z,21.8
2022-09-26T01:05:23.070Z,21.9
2022-09-26T01:06:25.591Z,21.9
2022-09-26T01:07:27.766Z,21.9
2022-09-26T01:08:30.242Z,21.9
2022-09-26T01:09:32.452Z,21.8
2022-09-26T01:10:34.660Z,21.9
2022-09-26T01:11:36.311Z,21.8
2022-09-26T01:12:38.878Z,21.8
2022-09-26T01:13:41.065Z,21.9
2022-09-26T01:14:43.264Z,21.9
2022-09-26T01:15:45.466Z,21.9
2022-09-26T01:16:47.633Z,21.9
2022-09-26T01:17:50.167Z,21.9
2022-09-26T01:18:52.742Z,22
2022-09-26T01:19:54.658Z,21.9
2022-09-26T01:20:56.892Z,21.9
2022-09-26T01:21:59.407Z,21.9
2022-09-26T01:23:01.624Z,21.9
2022-09-26T01:24:03.825Z,21.9
2022-09-26T01:25:06.348Z,21.9
2022-09-26T01:26:08.551Z,22
2022-09-26T01:27:11.018Z,21.9
2022-09-26T01:28:13.240Z,22
2022-09-26T01:29:15.443Z,21.9
2022-09-26T01:30:17.666Z,22
2022-09-26T01:31:19.713Z,22
2022-09-26T01:32:22.013Z,21.9
2022-09-26T01:33:24.487Z,21.9
2022-09-26T01:34:26.812Z,21.9
2022-09-26T01:35:29.005Z,22
2022-09-26T01:36:31.227Z,21.9
2022-09-26T01:37:33.723Z,21.9
2022-09-26T01:38:35.914Z,21.9
2022-09-26T01:39:37.853Z,21.9
2022-09-26T01:40:40.462Z,22
2022-09-26T01:41:43.337Z,21.9
2022-09-26T01:42:45.272Z,22
2022-09-26T01:43:47.760Z,21.9
2022-09-26T01:44:50.235Z,21.9
2022-09-26T01:45:52.844Z,21.9
2022-09-26T01:46:55.690Z,22
2022-09-26T01:47:57.612Z,21.9
2022-09-26T01:48:59.999Z,21.9
2022-09-26T01:50:02.516Z,21.9
2022-09-26T01:51:04.422Z,21.9
2022-09-26T01:52:06.642Z,22
2022-09-26T01:53:09.146Z,21.9
2022-09-26T01:54:11.338Z,21.9
2022-09-26T01:55:13.842Z,21.9
2022-09-26T01:56:15.736Z,22
2022-09-26T01:57:17.667Z,22
2022-09-26T01:58:20.130Z,22
2022-09-26T01:59:22.333Z,22
2022-09-26T02:00:39.486Z,21.9
2022-09-26T02:01:41.543Z,21.9
2022-09-26T02:02:44.439Z,22
2022-09-26T02:03:46.803Z,22
2022-09-26T02:04:48.990Z,21.9
2022-09-26T02:05:51.222Z,22
2022-09-26T02:06:53.154Z,21.9
2022-09-26T02:07:55.078Z,22
2022-09-26T02:08:57.600Z,22
2022-09-26T02:09:59.269Z,21.9
2022-09-26T02:11:01.501Z,22
2022-09-26T02:12:03.715Z,21.9
2022-09-26T02:13:05.934Z,22
2022-09-26T02:14:08.142Z,22
2022-09-26T02:15:10.613Z,22
2022-09-26T02:16:12.838Z,22.1
2022-09-26T02:17:15.476Z,22
2022-09-26T02:18:17.942Z,22
2022-09-26T02:19:20.410Z,22
2022-09-26T02:20:22.881Z,22
2022-09-26T02:21:25.390Z,22
2022-09-26T02:22:27.862Z,22
2022-09-26T02:23:30.174Z,21.9
2022-09-26T02:24:32.408Z,21.9
2022-09-26T02:25:34.606Z,22
2022-09-26T02:26:37.120Z,21.9
2022-09-26T02:27:39.581Z,22
2022-09-26T02:28:42.066Z,22
2022-09-26T02:29:44.255Z,22
2022-09-26T02:30:46.745Z,21.9
2022-09-26T02:31:48.592Z,22
2022-09-26T02:32:51.126Z,22
2022-09-26T02:33:53.028Z,22
2022-09-26T02:34:55.232Z,22
2022-09-26T02:35:57.442Z,22.1
2022-09-26T02:36:59.775Z,22
2022-09-26T02:38:02.343Z,22
2022-09-26T02:39:04.552Z,22
2022-09-26T02:40:07.482Z,22.1
2022-09-26T02:41:09.957Z,22
2022-09-26T02:42:12.427Z,22
2022-09-26T02:43:14.600Z,22
2022-09-26T02:44:16.799Z,22
2022-09-26T02:45:19.280Z,22
2022-09-26T02:46:21.982Z,22
2022-09-26T02:47:24.696Z,22
2022-09-26T02:48:27.164Z,22
2022-09-26T02:49:29.362Z,22
2022-09-26T02:51:36.542Z,22.1
2022-09-26T02:52:39.060Z,22.1
2022-09-26T02:53:40.986Z,22.1
2022-09-26T02:54:43.475Z,22
2022-09-26T02:55:45.972Z,22
2022-09-26T02:56:47.888Z,22
2022-09-26T02:57:50.079Z,22.1
2022-09-26T02:58:52.550Z,22.1
2022-09-26T02:59:54.181Z,22
2022-09-26T03:00:56.484Z,22.1
2022-09-26T03:01:58.955Z,22
2022-09-26T03:03:01.425Z,22.1
2022-09-26T03:04:03.618Z,22
2022-09-26T03:05:05.365Z,22
2022-09-26T03:06:07.894Z,22
2022-09-26T03:07:10.414Z,22
2022-09-26T03:08:12.906Z,22
2022-09-26T03:09:15.573Z,22
2022-09-26T03:10:18.125Z,21.9
2022-09-26T03:11:20.715Z,21.9
2022-09-26T03:12:22.634Z,21.9
2022-09-26T03:13:25.111Z,21.9
2022-09-26T03:14:27.591Z,21.8
2022-09-26T03:15:29.790Z,21.8
2022-09-26T03:16:32.152Z,21.8
2022-09-26T03:17:34.590Z,21.8
2022-09-26T03:18:36.790Z,21.8
2022-09-26T03:19:39.261Z,21.7
2022-09-26T03:20:41.798Z,21.8
2022-09-26T03:21:43.709Z,21.7
2022-09-26T03:22:46.180Z,21.8
2022-09-26T03:23:48.442Z,21.8
2022-09-26T03:24:50.673Z,21.7
2022-09-26T03:25:52.875Z,21.6
2022-09-26T03:26:55.382Z,21.8
2022-09-26T03:27:57.288Z,21.7
2022-09-26T03:28:59.762Z,21.7
2022-09-26T03:30:02.248Z,21.7
2022-09-26T03:31:04.166Z,21.8
2022-09-26T03:32:06.572Z,21.8
2022-09-26T03:33:08.736Z,21.6
2022-09-26T03:34:11.220Z,21.8
2022-09-26T03:35:13.438Z,21.6
2022-09-26T03:36:15.675Z,21.7
2022-09-26T03:37:17.908Z,21.6
2022-09-26T03:38:19.828Z,21.7
2022-09-26T03:39:22.069Z,21.7
2022-09-26T03:40:24.404Z,21.6
2022-09-26T03:41:26.837Z,21.6
2022-09-26T03:42:29.147Z,21.6
2022-09-26T03:43:31.621Z,21.6
2022-09-26T03:44:34.100Z,21.6
2022-09-26T03:45:36.414Z,21.6
2022-09-26T03:46:40.722Z,21.7
2022-09-26T03:47:43.210Z,21.7
2022-09-26T03:48:45.945Z,21.5
2022-09-26T03:49:48.498Z,21.6
2022-09-26T03:50:50.691Z,21.5
2022-09-26T03:51:52.877Z,21.6
2022-09-26T03:52:55.369Z,21.6
2022-09-26T03:53:57.583Z,21.7
2022-09-26T03:54:59.808Z,21.5
2022-09-26T03:56:02.008Z,21.5
2022-09-26T03:57:04.495Z,21.5
2022-09-26T03:58:07.013Z,21.6
2022-09-26T03:59:09.462Z,21.5
2022-09-26T04:00:12.040Z,21.6
2022-09-26T04:01:14.249Z,21.6
2022-09-26T04:02:17.053Z,21.5
2022-09-26T04:03:19.913Z,21.6
2022-09-26T04:04:22.114Z,21.5
2022-09-26T04:05:24.324Z,21.6
2022-09-26T04:06:26.514Z,21.5
2022-09-26T04:07:28.703Z,21.5
2022-09-26T04:08:31.200Z,21.5
2022-09-26T04:09:33.098Z,21.5
2022-09-26T04:10:35.602Z,21.5
2022-09-26T04:11:38.070Z,21.5
2022-09-26T04:12:40.274Z,21.5
2022-09-26T04:14:47.761Z,21.5
2022-09-26T04:15:49.693Z,21.5
2022-09-26T04:16:52.364Z,21.5
2022-09-26T04:17:54.905Z,21.6
2022-09-26T04:18:57.429Z,21.5
2022-09-26T04:19:59.915Z,21.5
2022-09-26T04:21:01.819Z,21.5
2022-09-26T04:22:07.518Z,21.5
2022-09-26T04:23:09.721Z,21.5
2022-09-26T04:24:12.196Z,21.6
2022-09-26T04:25:14.668Z,21.5
2022-09-26T04:27:21.876Z,21.6
2022-09-26T04:28:23.826Z,21.5
2022-09-26T04:29:26.342Z,21.5
2022-09-26T04:30:28.543Z,21.5
2022-09-26T04:31:30.948Z,21.5
2022-09-26T04:32:33.029Z,21.4
2022-09-26T04:33:35.201Z,21.6
2022-09-26T04:34:37.680Z,21.4
2022-09-26T04:35:39.875Z,21.5
2022-09-26T04:36:42.346Z,21.5
2022-09-26T04:37:44.524Z,21.5
2022-09-26T04:38:46.841Z,21.5
2022-09-26T04:39:49.072Z,21.5
2022-09-26T04:40:51.660Z,21.5
2022-09-26T04:41:54.119Z,21.5
2022-09-26T04:42:56.324Z,21.5
2022-09-26T04:43:58.278Z,21.4
2022-09-26T04:45:00.898Z,21.4
2022-09-26T04:46:03.626Z,21.4
2022-09-26T04:47:06.101Z,21.5
2022-09-26T04:48:08.711Z,21.5
2022-09-26T04:49:11.322Z,21.5
2022-09-26T04:50:13.966Z,21.5
2022-09-26T04:51:16.167Z,21.5
2022-09-26T04:52:18.391Z,21.4
2022-09-26T04:53:20.597Z,21.5
2022-09-26T04:54:22.789Z,21.4
2022-09-26T04:55:25.264Z,21.5
2022-09-26T04:56:27.739Z,21.5
2022-09-26T04:57:29.974Z,21.5
2022-09-26T04:58:32.166Z,21.4
2022-09-26T04:59:34.113Z,21.5
2022-09-26T05:00:36.814Z,21.5
2022-09-26T05:01:39.412Z,21.5
2022-09-26T05:02:41.714Z,21.5
2022-09-26T05:03:44.577Z,21.4
2022-09-26T05:04:47.043Z,21.5
2022-09-26T05:05:49.528Z,21.4
2022-09-26T05:06:51.797Z,21.4
2022-09-26T05:07:54.276Z,21.4
2022-09-26T05:08:56.746Z,21.4
2022-09-26T05:09:58.946Z,21.4
2022-09-26T05:11:01.148Z,21.5
2022-09-26T05:12:03.625Z,21.3
2022-09-26T05:13:06.246Z,21.3
2022-09-26T05:14:08.440Z,21.4
2022-09-26T05:15:10.660Z,21.3
2022-09-26T05:16:13.025Z,21.3
2022-09-26T05:17:15.659Z,21.4
2022-09-26T05:18:17.912Z,21.4
2022-09-26T05:19:19.821Z,21.4
2022-09-26T05:20:21.744Z,21.4
2022-09-26T05:21:24.219Z,21.5
2022-09-26T05:22:26.422Z,21.4
2022-09-26T05:23:28.627Z,21.5
2022-09-26T05:24:31.092Z,21.4
2022-09-26T05:25:33.021Z,21.5
2022-09-26T05:26:35.491Z,21.4
2022-09-26T05:27:37.751Z,21.3
2022-09-26T05:28:39.998Z,21.3
2022-09-26T05:29:42.197Z,21.4
2022-09-26T05:30:44.141Z,21.4
2022-09-26T05:31:46.539Z,21.3
2022-09-26T05:32:48.911Z,21.4
2022-09-26T05:33:51.381Z,21.4
2022-09-26T05:34:53.850Z,21.5
2022-09-26T05:35:56.049Z,21.3
2022-09-26T05:36:57.664Z,21.4
2022-09-26T05:38:00.157Z,21.4
2022-09-26T05:39:02.362Z,21.4
2022-09-26T05:40:04.323Z,21.4
2022-09-26T05:41:06.890Z,21.3
2022-09-26T05:42:09.104Z,21.4
2022-09-26T05:43:11.295Z,21.3
2022-09-26T05:44:13.816Z,21.4
2022-09-26T05:45:16.030Z,21.4
2022-09-26T05:46:17.858Z,21.4
2022-09-26T05:47:20.651Z,21.4
2022-09-26T05:48:23.130Z,21.4
2022-09-26T05:49:25.590Z,21.4
2022-09-26T05:50:27.791Z,21.3
2022-09-26T05:51:29.725Z,21.3
2022-09-26T05:52:31.924Z,21.4
2022-09-26T05:53:34.119Z,21.4
2022-09-26T05:54:36.042Z,21.4
2022-09-26T05:55:38.527Z,21.4
2022-09-26T05:56:41.245Z,21.4
2022-09-26T05:57:43.166Z,21.4
2022-09-26T05:58:45.371Z,21.4
2022-09-26T05:59:47.621Z,21.5
2022-09-26T06:00:50.233Z,21.3
2022-09-26T06:01:52.826Z,21.3
2022-09-26T06:02:55.719Z,21.3
2022-09-26T06:03:58.232Z,21.3
2022-09-26T06:05:00.713Z,21.3
2022-09-26T06:06:02.943Z,21.3
2022-09-26T06:07:04.870Z,21.3
2022-09-26T06:08:06.765Z,21.3
2022-09-26T06:09:09.327Z,21.3
2022-09-26T06:10:12.078Z,21.4
2022-09-26T06:11:14.581Z,21.3
2022-09-26T06:12:17.050Z,21.4
2022-09-26T06:13:19.255Z,21.5
2022-09-26T06:14:21.776Z,21.3
2022-09-26T06:15:24.293Z,21.3
2022-09-26T06:16:26.681Z,21.4
2022-09-26T06:17:29.589Z,21.3
2022-09-26T06:18:31.901Z,21.2
2022-09-26T06:19:33.543Z,21.4
2022-09-26T06:20:36.024Z,21.3
2022-09-26T06:21:38.503Z,21.2
2022-09-26T06:22:40.983Z,21.3
2022-09-26T06:23:42.915Z,21.3
2022-09-26T06:24:45.125Z,21.3
2022-09-26T06:25:47.321Z,21.3
2022-09-26T06:26:49.813Z,21.3
2022-09-26T06:28:57.299Z,21.4
2022-09-26T06:29:59.639Z,21.3
2022-09-26T06:31:02.177Z,21.4
2022-09-26T06:32:04.275Z,21.4
2022-09-26T06:33:06.712Z,21.4
2022-09-26T06:34:09.122Z,21.4
2022-09-26T06:35:11.335Z,21.3
2022-09-26T06:36:13.551Z,21.3
2022-09-26T06:37:15.485Z,21.3
2022-09-26T06:38:17.444Z,21.4
2022-09-26T06:39:19.670Z,21.3
2022-09-26T06:40:22.075Z,21.3
2022-09-26T06:41:24.241Z,21.3
2022-09-26T06:42:26.447Z,21.2
2022-09-26T06:43:28.643Z,21.4
2022-09-26T06:44:30.308Z,21.3
2022-09-26T06:45:32.787Z,21.3
2022-09-26T06:46:35.357Z,21.3
2022-09-26T06:47:37.861Z,21.4
2022-09-26T06:48:39.810Z,21.4
2022-09-26T06:49:42.070Z,21.3
2022-09-26T06:50:43.723Z,21.3
2022-09-26T06:51:45.944Z,21.3
2022-09-26T06:52:48.148Z,21.3
2022-09-26T06:53:50.092Z,21.3
2022-09-26T06:54:52.296Z,21.3
2022-09-26T06:55:54.771Z,21.4
2022-09-26T06:56:56.680Z,21.2
2022-09-26T06:57:58.316Z,21.3
2022-09-26T06:59:00.247Z,21.3
2022-09-26T07:00:02.423Z,21.3
2022-09-26T07:01:04.916Z,21.3
2022-09-26T07:02:08.729Z,21.4
2022-09-26T07:03:11.824Z,21.3
2022-09-26T07:04:13.809Z,21.4
2022-09-26T07:05:16.336Z,21.2
2022-09-26T07:06:18.544Z,21.2
2022-09-26T07:07:21.033Z,21.3
2022-09-26T07:09:28.434Z,21.3
2022-09-26T07:10:30.764Z,21.2
2022-09-26T07:12:38.234Z,21.2
2022-09-26T07:13:40.186Z,21.3
2022-09-26T07:14:42.429Z,21.3
2022-09-26T07:15:44.703Z,21.3
2022-09-26T07:16:47.416Z,21.3
2022-09-26T07:17:49.702Z,21.3
2022-09-26T07:18:51.910Z,21.3
2022-09-26T07:19:54.150Z,21.2
2022-09-26T07:20:57.577Z,21.3
2022-09-26T07:22:00.065Z,21.3
2022-09-26T07:23:02.344Z,21.4
2022-09-26T07:24:04.566Z,21.3
2022-09-26T07:25:07.046Z,21.3
2022-09-26T07:26:09.260Z,21.3
2022-09-26T07:27:11.488Z,21.3
2022-09-26T07:28:13.984Z,21.3
2022-09-26T07:29:16.520Z,21.3
2022-09-26T07:30:19.047Z,21.4
2022-09-26T07:31:21.405Z,21.2
2022-09-26T07:32:23.945Z,21.3
2022-09-26T07:33:26.213Z,21.3
2022-09-26T07:34:28.425Z,21.3
2022-09-26T07:35:30.383Z,21.2
2022-09-26T07:36:32.965Z,21.3
2022-09-26T07:37:35.163Z,21.2
2022-09-26T07:38:37.354Z,21.3
2022-09-26T07:39:39.328Z,21.3
2022-09-26T07:40:41.703Z,21.2
2022-09-26T07:41:44.287Z,21.2
2022-09-26T07:46:02.594Z,21.3
2022-09-26T07:47:05.005Z,21.2
2022-09-26T07:48:07.377Z,21.2
2022-09-26T07:49:09.910Z,21.3
2022-09-26T07:50:12.397Z,21.2
2022-09-26T07:51:14.080Z,21.3
2022-09-26T07:52:16.609Z,21.2
2022-09-26T07:53:18.812Z,21.3
2022-09-26T07:54:21.298Z,21.2
2022-09-26T07:55:23.802Z,21.3
2022-09-26T07:56:26.273Z,21.2
2022-09-26T07:57:28.478Z,21.2
2022-09-26T07:58:30.682Z,21.2
2022-09-26T07:59:32.886Z,21.3
2022-09-26T08:00:34.813Z,21.2
2022-09-26T08:01:37.450Z,21.3
2022-09-26T08:02:40.585Z,21.3
2022-09-26T08:03:43.449Z,21.3
2022-09-26T08:04:45.963Z,21.3
2022-09-26T08:05:47.909Z,21.2
2022-09-26T08:06:50.420Z,21.3
2022-09-26T08:07:53.000Z,21.3
2022-09-26T08:08:54.960Z,21.3
2022-09-26T08:09:57.454Z,21.2
2022-09-26T08:12:04.923Z,21.3
2022-09-26T08:13:07.423Z,21.2
2022-09-26T08:14:10.023Z,21.3
2022-09-26T08:15:12.386Z,21.3
2022-09-26T08:16:15.056Z,21.2
2022-09-26T08:17:17.744Z,21.2
2022-09-26T08:18:20.228Z,21.3
2022-09-26T08:19:22.442Z,21.2
2022-09-26T08:21:29.653Z,21.3
2022-09-26T08:22:32.219Z,21.1
2022-09-26T08:23:34.773Z,21.3
2022-09-26T08:24:37.248Z,21.3
2022-09-26T08:25:39.717Z,21.2
2022-09-26T08:27:47.185Z,21.2
2022-09-26T08:28:49.669Z,21.2
2022-09-26T08:29:51.653Z,21.2
2022-09-26T08:30:53.988Z,21.3
2022-09-26T08:31:56.831Z,21.3
2022-09-26T08:32:59.311Z,21.3
2022-09-26T08:34:01.790Z,21.3
2022-09-26T08:35:04.268Z,21.2
2022-09-26T08:36:06.775Z,21.3
2022-09-26T08:37:08.714Z,21.1
2022-09-26T08:38:11.206Z,21.2
2022-09-26T08:39:13.611Z,21.2
2022-09-26T08:40:16.906Z,21.3
2022-09-26T08:41:19.403Z,21.2
2022-09-26T08:42:21.871Z,21.2
2022-09-26T08:43:24.347Z,21.2
2022-09-26T08:44:26.285Z,21.2
2022-09-26T08:45:28.636Z,21.3
2022-09-26T08:46:30.956Z,21.3
2022-09-26T08:47:33.883Z,21.2
2022-09-26T08:48:35.789Z,21.1
2022-09-26T08:49:38.013Z,21.3
2022-09-26T08:50:39.945Z,21.1
2022-09-26T08:51:42.505Z,21.3
2022-09-26T08:52:44.985Z,21.1
2022-09-26T08:53:47.492Z,21.2
2022-09-26T08:54:50.168Z,21.2
2022-09-26T08:55:52.381Z,21.2
2022-09-26T08:56:54.858Z,21.3
2022-09-26T08:57:57.356Z,21.1
2022-09-26T08:58:59.825Z,21
2022-09-26T09:00:02.304Z,21.3
2022-09-26T09:01:04.538Z,21.2
2022-09-26T09:02:07.070Z,21.3
2022-09-26T09:03:09.782Z,21.2
2022-09-26T09:04:12.934Z,21.2
2022-09-26T09:05:15.187Z,21.2
2022-09-26T09:06:17.723Z,21.2
2022-09-26T09:07:20.016Z,21.2
2022-09-26T09:08:22.296Z,21.2
2022-09-26T09:09:24.573Z,21.2
2022-09-26T09:10:27.109Z,21.1
2022-09-26T09:11:29.586Z,21.2
2022-09-26T09:12:33.045Z,21.2
2022-09-26T09:13:35.295Z,21.2
2022-09-26T09:14:36.954Z,21.2
2022-09-26T09:15:39.578Z,21.2
2022-09-26T09:16:42.317Z,21.2
2022-09-26T09:17:44.261Z,21.2
2022-09-26T09:18:46.453Z,21.2
2022-09-26T09:19:48.374Z,21
2022-09-26T09:20:50.594Z,21.2
2022-09-26T09:21:52.828Z,21.1
2022-09-26T09:22:55.531Z,21.2
2022-09-26T09:23:57.735Z,21.1
2022-09-26T09:24:59.979Z,21.2
2022-09-26T09:28:12.492Z,21.2
2022-09-26T09:30:19.889Z,21.3
2022-09-26T09:31:22.291Z,21.1
2022-09-26T09:32:24.987Z,21.2
2022-09-26T09:33:27.465Z,21.2
2022-09-26T09:34:29.933Z,21.2
2022-09-26T09:35:32.408Z,21.2
2022-09-26T09:36:34.607Z,21.1
2022-09-26T09:37:36.258Z,21.3
2022-09-26T09:38:38.496Z,21.2
2022-09-26T09:39:40.429Z,21.2
2022-09-26T09:40:42.929Z,21.3
2022-09-26T09:41:45.462Z,21.2
2022-09-26T09:42:47.659Z,21.1
2022-09-26T09:43:49.866Z,21.1
2022-09-26T09:44:52.338Z,21.2
2022-09-26T09:45:54.548Z,21.2
2022-09-26T09:46:56.359Z,21.2
2022-09-26T09:47:58.966Z,21.3
2022-09-26T09:49:01.173Z,21.1
2022-09-26T09:50:03.381Z,21.2
2022-09-26T09:51:05.854Z,21.2
2022-09-26T09:52:08.075Z,21.1
2022-09-26T09:53:10.289Z,21.2
2022-09-26T09:54:12.910Z,21.2
2022-09-26T09:55:15.429Z,21.2
2022-09-26T09:56:17.945Z,21.3
2022-09-26T09:57:20.446Z,21.2
2022-09-26T09:58:22.655Z,21.3
2022-09-26T09:59:24.855Z,21.3
2022-09-26T10:00:27.350Z,21.2
2022-09-26T10:01:29.815Z,21.2
2022-09-26T10:02:32.485Z,21.2
2022-09-26T10:03:35.058Z,21.2
2022-09-26T10:04:36.714Z,21.2
2022-09-26T10:05:38.921Z,21.2
2022-09-26T10:07:46.110Z,21.2
2022-09-26T10:08:48.323Z,21.2
2022-09-26T10:09:50.767Z,21.3
2022-09-26T10:10:52.979Z,21.1
2022-09-26T10:11:55.493Z,21.2
2022-09-26T10:12:58.007Z,21.3
2022-09-26T10:13:59.941Z,21.3
2022-09-26T10:15:02.184Z,21.2
2022-09-26T10:16:04.490Z,21.2
2022-09-26T10:17:06.820Z,21.2
2022-09-26T10:19:13.542Z,21.2
2022-09-26T10:20:16.026Z,21.2
2022-09-26T10:21:18.331Z,21.1
2022-09-26T10:22:20.545Z,21.2
2022-09-26T10:23:23.022Z,21.3
2022-09-26T10:24:24.950Z,21.1
2022-09-26T10:25:27.190Z,21.1
2022-09-26T10:27:34.737Z,21.3
2022-09-26T10:28:37.022Z,21.2
2022-09-26T10:29:39.228Z,21.2
2022-09-26T10:30:41.708Z,21.3
2022-09-26T10:31:44.350Z,21.2
2022-09-26T10:32:47.095Z,21.3
2022-09-26T10:33:53.272Z,21.3
2022-09-26T10:34:55.480Z,21.1
2022-09-26T10:35:57.680Z,21.2
2022-09-26T10:37:00.156Z,21.1
2022-09-26T10:38:02.373Z,21.2
2022-09-26T10:39:04.282Z,21.2
2022-09-26T10:40:06.481Z,21.2
2022-09-26T10:41:09.206Z,21.1
2022-09-26T10:42:11.641Z,21.2
2022-09-26T10:43:13.310Z,21.2
2022-09-26T10:44:16.118Z,21.2
2022-09-26T10:45:18.155Z,21.2
2022-09-26T10:46:20.484Z,21.1
2022-09-26T10:47:23.266Z,21.1
2022-09-26T10:48:25.744Z,21.2
2022-09-26T10:49:27.953Z,21.1
2022-09-26T10:50:29.851Z,21.2
2022-09-26T10:51:32.070Z,21.2
2022-09-26T10:52:34.267Z,21.2
2022-09-26T10:53:36.747Z,21.2
2022-09-26T10:54:38.683Z,21.3
2022-09-26T10:55:41.159Z,21.1
2022-09-26T10:56:43.676Z,21.2
2022-09-26T10:57:45.918Z,21.1
2022-09-26T10:58:48.505Z,21.2
2022-09-26T10:59:51.076Z,21.2
2022-09-26T11:00:53.543Z,21.3
2022-09-26T11:01:56.005Z,21.1
2022-09-26T11:02:58.546Z,21.1
2022-09-26T11:04:00.952Z,21.2
2022-09-26T11:05:03.552Z,21.2
2022-09-26T11:06:05.770Z,21.2
2022-09-26T11:07:07.695Z,21.1
2022-09-26T11:08:10.168Z,21.2
2022-09-26T11:09:12.364Z,21.1
2022-09-26T11:10:14.952Z,21.3
2022-09-26T11:11:17.498Z,21.1
2022-09-26T11:12:20.116Z,21.2
2022-09-26T11:13:22.317Z,21.2
2022-09-26T11:15:29.956Z,21.2
2022-09-26T11:17:37.867Z,21.2
2022-09-26T11:18:40.077Z,21.2
2022-09-26T11:19:42.023Z,21.2
2022-09-26T11:20:43.955Z,21.2
2022-09-26T11:21:46.197Z,21.2
2022-09-26T11:22:48.687Z,21.2
2022-09-26T11:23:50.883Z,21.2
2022-09-26T11:25:24.939Z,21.2
2022-09-26T11:27:31.697Z,21.2
2022-09-26T11:30:09.452Z,21.2
2022-09-26T11:32:15.431Z,21.1
2022-09-26T11:34:53.371Z,21.2
2022-09-26T11:36:59.515Z,21.2
2022-09-26T11:41:43.494Z,21.2
2022-09-26T11:42:45.437Z,21.2
2022-09-26T11:43:48.159Z,21.2
2022-09-26T11:44:50.641Z,21.2
2022-09-26T11:45:53.171Z,21.2
2022-09-26T11:46:55.730Z,21.1
2022-09-26T11:47:58.041Z,21.2
2022-09-26T11:49:00.237Z,21.1
2022-09-26T11:50:02.533Z,21.2
2022-09-26T11:51:04.758Z,21.2
2022-09-26T11:52:06.711Z,21.2
2022-09-26T11:53:08.631Z,21.2
2022-09-26T11:54:10.570Z,21.2
2022-09-26T11:55:12.900Z,21.2
2022-09-26T11:56:15.372Z,21.2
2022-09-26T11:57:17.631Z,21.3
2022-09-26T11:58:20.147Z,21.3
2022-09-26T11:59:22.670Z,21.2
2022-09-26T12:00:24.999Z,21.2
2022-09-26T12:01:27.202Z,21.3
2022-09-26T12:02:29.703Z,21.2
2022-09-26T12:03:32.594Z,21.3
2022-09-26T12:04:35.755Z,21.3
2022-09-26T12:05:38.246Z,21.3
2022-09-26T12:06:40.161Z,21.2
2022-09-26T12:07:42.651Z,21.2
2022-09-26T12:08:44.849Z,21.2
2022-09-26T12:09:46.845Z,21.2
2022-09-26T12:10:49.346Z,21.2
2022-09-26T12:11:51.279Z,21.2
2022-09-26T12:12:53.756Z,21.2
2022-09-26T12:13:56.510Z,21.2
2022-09-26T12:14:59.100Z,21.1
2022-09-26T12:16:01.471Z,21.2
2022-09-26T12:17:04.249Z,21.3
2022-09-26T12:18:06.774Z,21.2
2022-09-26T12:20:13.987Z,21.1
2022-09-26T12:21:16.483Z,21.2
2022-09-26T12:22:19.018Z,21.2
2022-09-26T12:23:21.634Z,21.1
2022-09-26T12:24:24.100Z,21.2
2022-09-26T12:25:26.027Z,21.1
2022-09-26T12:26:28.227Z,21.2
2022-09-26T12:27:29.872Z,21.1
2022-09-26T12:28:32.071Z,21.2
2022-09-26T12:29:34.344Z,21.2
2022-09-26T12:30:36.284Z,21.2
2022-09-26T12:31:39.021Z,21.3
2022-09-26T12:32:41.640Z,21.2
2022-09-26T12:33:44.156Z,21.2
2022-09-26T12:34:46.404Z,21.2
2022-09-26T12:35:48.906Z,21.3
2022-09-26T12:36:51.382Z,21.3
2022-09-26T12:37:53.310Z,21.2
2022-09-26T12:38:57.361Z,21.2
2022-09-26T12:39:59.290Z,21.1
2022-09-26T12:41:01.403Z,21.2
2022-09-26T12:42:04.029Z,21.2
2022-09-26T12:43:05.954Z,21.2
2022-09-26T12:44:08.165Z,21.2
2022-09-26T12:45:10.677Z,21.2
2022-09-26T12:46:13.055Z,21.2
2022-09-26T12:47:15.735Z,21.2
2022-09-26T12:48:18.217Z,21.2
2022-09-26T12:49:20.442Z,21.1
2022-09-26T12:50:22.731Z,21.2
2022-09-26T12:51:24.657Z,21.2
2022-09-26T12:52:28.164Z,21.2
2022-09-26T12:53:30.085Z,21.3
2022-09-26T12:54:32.604Z,21.2
2022-09-26T12:55:35.087Z,21.1
2022-09-26T12:56:37.573Z,21.3
2022-09-26T12:57:40.048Z,21.2
2022-09-26T12:58:42.243Z,21.2
2022-09-26T12:59:44.718Z,21.2
2022-09-26T13:00:47.213Z,21.2
2022-09-26T13:01:50.031Z,21.3
2022-09-26T13:02:53.089Z,21.2
2022-09-26T13:03:55.643Z,21.2
2022-09-26T13:04:57.834Z,21.3
2022-09-26T13:06:01.343Z,21.3
2022-09-26T13:08:10.529Z,21.3
2022-09-26T13:09:13.084Z,21.1
2022-09-26T13:10:16.141Z,21.3
2022-09-26T13:11:18.891Z,21.3
2022-09-26T13:12:21.358Z,21.2
2022-09-26T13:13:23.567Z,21.4
2022-09-26T13:14:26.049Z,21.3
2022-09-26T13:15:28.400Z,21.1
2022-09-26T13:16:31.089Z,21.2
2022-09-26T13:17:33.295Z,21.3
2022-09-26T13:18:36.169Z,21.3
2022-09-26T13:19:38.657Z,21.1
2022-09-26T13:20:41.200Z,21.2
2022-09-26T13:21:43.711Z,21.2
2022-09-26T13:22:46.203Z,21.1
2022-09-26T13:23:48.435Z,21.2
2022-09-26T13:24:50.922Z,21.3
2022-09-26T13:25:53.479Z,21.2
2022-09-26T13:26:55.982Z,21.2
2022-09-26T13:27:58.485Z,21.2
2022-09-26T13:30:05.402Z,21.2
2022-09-26T13:31:08.052Z,21.3
2022-09-26T13:32:10.616Z,21.3
2022-09-26T13:33:12.815Z,21.3
2022-09-26T13:34:15.338Z,21.1
2022-09-26T13:35:17.824Z,21.2
2022-09-26T13:36:20.340Z,21.2
2022-09-26T13:37:22.633Z,21.2
2022-09-26T13:38:25.121Z,21.3
2022-09-26T13:39:27.638Z,21.2
2022-09-26T13:41:35.129Z,21.3
2022-09-26T13:42:37.618Z,21.3
2022-09-26T13:43:40.093Z,21.2
2022-09-26T13:44:42.304Z,21.2
2022-09-26T13:45:44.507Z,21.2
2022-09-26T13:46:46.548Z,21.2
2022-09-26T13:47:48.870Z,21.2
2022-09-26T13:48:51.402Z,21.2
2022-09-26T13:49:53.881Z,21.2
2022-09-26T13:50:56.412Z,21.2
2022-09-26T13:51:58.920Z,21.2
2022-09-26T13:53:00.874Z,21.1
2022-09-26T13:54:03.436Z,21.2
2022-09-26T13:55:05.957Z,21.3
2022-09-26T13:56:08.427Z,21.3
2022-09-26T13:57:10.654Z,21.3
2022-09-26T13:58:13.138Z,21.2
2022-09-26T13:59:15.628Z,21.3
2022-09-26T14:00:18.119Z,21.1
2022-09-26T14:01:20.690Z,21.3
2022-09-26T14:02:23.331Z,21.2
2022-09-26T14:03:26.278Z,21.3
2022-09-26T14:04:28.751Z,21.2
2022-09-26T14:05:31.225Z,21.2
2022-09-26T14:06:33.722Z,21.2
2022-09-26T14:07:36.165Z,21.3
2022-09-26T14:08:38.662Z,21.2
2022-09-26T14:09:41.161Z,21.2
2022-09-26T14:10:43.371Z,21.1
2022-09-26T14:11:45.855Z,21.2
2022-09-26T14:12:47.788Z,21.3
2022-09-26T14:13:50.301Z,21.2
2022-09-26T14:14:52.770Z,21.3
2022-09-26T14:15:55.377Z,21.3
2022-09-26T14:16:57.237Z,21.3
2022-09-26T14:17:59.732Z,21.3
2022-09-26T14:19:01.948Z,21.2
2022-09-26T14:20:04.433Z,21.3
2022-09-26T14:21:05.820Z,21.3
2022-09-26T14:22:08.042Z,21.3
2022-09-26T14:23:10.442Z,21.3
2022-09-26T14:24:12.415Z,21.1
2022-09-26T14:25:15.256Z,21.3
2022-09-26T14:26:17.471Z,21.2
2022-09-26T14:27:19.951Z,21.1
2022-09-26T14:28:21.882Z,21.2
2022-09-26T14:29:24.110Z,21.2
2022-09-26T14:30:26.320Z,21.3
2022-09-26T14:31:28.830Z,21.2